sensor_id;sensor_type;location;lat;lon;timestamp;P1;durP1;ratioP1;P2;durP2;ratioP2
23390;SDS011;11868;45.606;5.302;2023-04-25T00:02:09;9.15;;;4.35;;
23390;SDS011;11868;45.606;5.302;2023-04-25T00:04:34;12.48;;;6.05;;
23390;SDS011;11868;45.606;5.302;2023-04-25T00:06:59;15.75;;;6.20;;
23390;SDS011;11868;45.606;5.302;2023-04-25T00:09:28;22.60;;;8.50;;
23390;SDS011;11868;45.606;5.302;2023-04-25T00:11:53;21.45;;;9.32;;
23390;SDS011;11868;45.606;5.302;2023-04-25T00:14:18;24.77;;;9.63;;
23390;SDS011;11868;45.606;5.302;2023-04-25T00:16:44;26.42;;;10.23;;
23390;SDS011;11868;45.606;5.302;2023-04-25T00:19:09;20.15;;;9.02;;
23390;SDS011;11868;45.606;5.302;2023-04-25T00:21:35;21.67;;;9.02;;
23390;SDS011;11868;45.606;5.302;2023-04-25T00:24:00;16.05;;;7.53;;
23390;SDS011;11868;45.606;5.302;2023-04-25T00:26:26;18.98;;;7.25;;
23390;SDS011;11868;45.606;5.302;2023-04-25T00:28:52;16.08;;;7.18;;
23390;SDS011;11868;45.606;5.302;2023-04-25T00:31:17;20.05;;;7.78;;
23390;SDS011;11868;45.606;5.302;2023-04-25T00:33:43;24.60;;;7.97;;
23390;SDS011;11868;45.606;5.302;2023-04-25T00:36:08;22.95;;;8.90;;
23390;SDS011;11868;45.606;5.302;2023-04-25T00:38:34;19.52;;;8.50;;
23390;SDS011;11868;45.606;5.302;2023-04-25T00:40:59;23.63;;;10.27;;
23390;SDS011;11868;45.606;5.302;2023-04-25T00:43:26;32.28;;;10.40;;
23390;SDS011;11868;45.606;5.302;2023-04-25T00:45:51;22.20;;;10.65;;
23390;SDS011;11868;45.606;5.302;2023-04-25T00:48:17;25.00;;;10.93;;
23390;SDS011;11868;45.606;5.302;2023-04-25T00:50:44;21.20;;;9.45;;
23390;SDS011;11868;45.606;5.302;2023-04-25T00:53:19;24.02;;;8.63;;
23390;SDS011;11868;45.606;5.302;2023-04-25T00:55:45;18.25;;;8.07;;
23390;SDS011;11868;45.606;5.302;2023-04-25T00:58:10;18.83;;;7.75;;
23390;SDS011;11868;45.606;5.302;2023-04-25T01:00:36;16.60;;;8.02;;
23390;SDS011;11868;45.606;5.302;2023-04-25T01:03:01;18.80;;;7.22;;
23390;SDS011;11868;45.606;5.302;2023-04-25T01:05:28;13.98;;;7.10;;
23390;SDS011;11868;45.606;5.302;2023-04-25T01:07:54;16.02;;;6.70;;
23390;SDS011;11868;45.606;5.302;2023-04-25T01:10:19;13.45;;;6.00;;
23390;SDS011;11868;45.606;5.302;2023-04-25T01:12:45;17.10;;;6.20;;
23390;SDS011;11868;45.606;5.302;2023-04-25T01:15:10;16.05;;;6.28;;
23390;SDS011;11868;45.606;5.302;2023-04-25T01:17:35;13.45;;;6.43;;
23390;SDS011;11868;45.606;5.302;2023-04-25T01:20:03;18.90;;;7.05;;
23390;SDS011;11868;45.606;5.302;2023-04-25T01:22:29;10.82;;;5.80;;
23390;SDS011;11868;45.606;5.302;2023-04-25T01:24:54;13.82;;;6.22;;
23390;SDS011;11868;45.606;5.302;2023-04-25T01:27:20;11.45;;;5.80;;
23390;SDS011;11868;45.606;5.302;2023-04-25T01:29:46;12.73;;;5.72;;
23390;SDS011;11868;45.606;5.302;2023-04-25T01:32:12;14.38;;;6.68;;
23390;SDS011;11868;45.606;5.302;2023-04-25T01:34:38;13.57;;;5.45;;
23390;SDS011;11868;45.606;5.302;2023-04-25T01:37:04;9.57;;;4.60;;
23390;SDS011;11868;45.606;5.302;2023-04-25T01:39:29;11.02;;;4.57;;
23390;SDS011;11868;45.606;5.302;2023-04-25T01:41:54;8.80;;;3.88;;
23390;SDS011;11868;45.606;5.302;2023-04-25T01:44:20;7.97;;;3.60;;
23390;SDS011;11868;45.606;5.302;2023-04-25T01:46:45;5.95;;;2.80;;
23390;SDS011;11868;45.606;5.302;2023-04-25T01:49:11;9.82;;;3.53;;
23390;SDS011;11868;45.606;5.302;2023-04-25T01:51:36;7.95;;;3.97;;
23390;SDS011;11868;45.606;5.302;2023-04-25T01:54:01;8.57;;;3.38;;
23390;SDS011;11868;45.606;5.302;2023-04-25T01:56:34;7.13;;;3.65;;
23390;SDS011;11868;45.606;5.302;2023-04-25T01:59:02;6.53;;;3.17;;
23390;SDS011;11868;45.606;5.302;2023-04-25T02:01:29;8.60;;;3.88;;
23390;SDS011;11868;45.606;5.302;2023-04-25T02:03:54;8.48;;;3.60;;
23390;SDS011;11868;45.606;5.302;2023-04-25T02:06:19;7.57;;;3.15;;
23390;SDS011;11868;45.606;5.302;2023-04-25T02:08:45;7.72;;;3.10;;
23390;SDS011;11868;45.606;5.302;2023-04-25T02:11:10;12.65;;;3.30;;
23390;SDS011;11868;45.606;5.302;2023-04-25T02:13:35;9.45;;;3.28;;
23390;SDS011;11868;45.606;5.302;2023-04-25T02:16:01;9.77;;;3.55;;
23390;SDS011;11868;45.606;5.302;2023-04-25T02:18:26;5.40;;;3.30;;
23390;SDS011;11868;45.606;5.302;2023-04-25T02:20:52;11.88;;;3.67;;
23390;SDS011;11868;45.606;5.302;2023-04-25T02:23:17;7.28;;;4.00;;
23390;SDS011;11868;45.606;5.302;2023-04-25T02:25:44;9.07;;;4.13;;
23390;SDS011;11868;45.606;5.302;2023-04-25T02:28:09;8.65;;;3.97;;
23390;SDS011;11868;45.606;5.302;2023-04-25T02:30:35;11.65;;;4.00;;
23390;SDS011;11868;45.606;5.302;2023-04-25T02:33:01;7.60;;;4.20;;
23390;SDS011;11868;45.606;5.302;2023-04-25T02:35:26;10.52;;;4.30;;
23390;SDS011;11868;45.606;5.302;2023-04-25T02:37:51;9.05;;;3.92;;
23390;SDS011;11868;45.606;5.302;2023-04-25T02:40:17;6.53;;;3.72;;
23390;SDS011;11868;45.606;5.302;2023-04-25T02:42:42;8.75;;;3.85;;
23390;SDS011;11868;45.606;5.302;2023-04-25T02:45:08;5.80;;;3.33;;
23390;SDS011;11868;45.606;5.302;2023-04-25T02:47:33;9.48;;;3.53;;
23390;SDS011;11868;45.606;5.302;2023-04-25T02:49:59;11.07;;;3.78;;
23390;SDS011;11868;45.606;5.302;2023-04-25T02:52:24;8.88;;;3.95;;
23390;SDS011;11868;45.606;5.302;2023-04-25T02:54:50;6.78;;;3.65;;
23390;SDS011;11868;45.606;5.302;2023-04-25T02:57:15;9.35;;;3.97;;
23390;SDS011;11868;45.606;5.302;2023-04-25T02:59:41;6.00;;;3.38;;
23390;SDS011;11868;45.606;5.302;2023-04-25T03:02:06;8.02;;;3.00;;
23390;SDS011;11868;45.606;5.302;2023-04-25T03:04:31;11.38;;;3.65;;
23390;SDS011;11868;45.606;5.302;2023-04-25T03:06:58;8.05;;;3.70;;
23390;SDS011;11868;45.606;5.302;2023-04-25T03:09:23;7.25;;;3.45;;
23390;SDS011;11868;45.606;5.302;2023-04-25T03:11:49;11.93;;;3.63;;
23390;SDS011;11868;45.606;5.302;2023-04-25T03:14:14;9.43;;;4.07;;
23390;SDS011;11868;45.606;5.302;2023-04-25T03:16:40;10.38;;;3.83;;
23390;SDS011;11868;45.606;5.302;2023-04-25T03:19:05;7.22;;;3.78;;
23390;SDS011;11868;45.606;5.302;2023-04-25T03:21:31;6.38;;;3.28;;
23390;SDS011;11868;45.606;5.302;2023-04-25T03:23:58;9.43;;;3.50;;
23390;SDS011;11868;45.606;5.302;2023-04-25T03:26:23;8.50;;;3.70;;
23390;SDS011;11868;45.606;5.302;2023-04-25T03:28:49;11.38;;;3.80;;
23390;SDS011;11868;45.606;5.302;2023-04-25T03:31:14;8.55;;;3.67;;
23390;SDS011;11868;45.606;5.302;2023-04-25T03:33:40;8.40;;;4.25;;
23390;SDS011;11868;45.606;5.302;2023-04-25T03:36:05;6.80;;;3.28;;
23390;SDS011;11868;45.606;5.302;2023-04-25T03:38:31;11.23;;;3.63;;
23390;SDS011;11868;45.606;5.302;2023-04-25T03:40:56;6.43;;;3.38;;
23390;SDS011;11868;45.606;5.302;2023-04-25T03:43:21;10.05;;;3.85;;
23390;SDS011;11868;45.606;5.302;2023-04-25T03:45:47;10.95;;;3.33;;
23390;SDS011;11868;45.606;5.302;2023-04-25T03:48:12;10.93;;;3.40;;
23390;SDS011;11868;45.606;5.302;2023-04-25T03:50:37;6.75;;;3.30;;
23390;SDS011;11868;45.606;5.302;2023-04-25T03:53:03;12.93;;;3.63;;
23390;SDS011;11868;45.606;5.302;2023-04-25T03:55:28;8.93;;;4.28;;
23390;SDS011;11868;45.606;5.302;2023-04-25T03:57:53;7.05;;;3.22;;
23390;SDS011;11868;45.606;5.302;2023-04-25T04:00:19;8.27;;;3.40;;
23390;SDS011;11868;45.606;5.302;2023-04-25T04:02:44;10.15;;;3.63;;
23390;SDS011;11868;45.606;5.302;2023-04-25T04:05:10;9.00;;;3.47;;
23390;SDS011;11868;45.606;5.302;2023-04-25T04:07:35;7.57;;;3.80;;
23390;SDS011;11868;45.606;5.302;2023-04-25T04:10:05;8.75;;;3.25;;
23390;SDS011;11868;45.606;5.302;2023-04-25T04:12:31;16.40;;;4.55;;
23390;SDS011;11868;45.606;5.302;2023-04-25T04:14:57;7.95;;;3.75;;
23390;SDS011;11868;45.606;5.302;2023-04-25T04:17:22;10.18;;;3.67;;
23390;SDS011;11868;45.606;5.302;2023-04-25T04:19:47;6.57;;;3.38;;
23390;SDS011;11868;45.606;5.302;2023-04-25T04:22:13;9.20;;;3.88;;
23390;SDS011;11868;45.606;5.302;2023-04-25T04:24:38;11.10;;;4.15;;
23390;SDS011;11868;45.606;5.302;2023-04-25T04:27:03;7.05;;;3.75;;
23390;SDS011;11868;45.606;5.302;2023-04-25T04:29:29;8.48;;;3.80;;
23390;SDS011;11868;45.606;5.302;2023-04-25T04:31:54;9.38;;;3.38;;
23390;SDS011;11868;45.606;5.302;2023-04-25T04:34:20;13.13;;;3.75;;
23390;SDS011;11868;45.606;5.302;2023-04-25T04:36:45;9.10;;;3.70;;
23390;SDS011;11868;45.606;5.302;2023-04-25T04:39:12;10.68;;;3.80;;
23390;SDS011;11868;45.606;5.302;2023-04-25T04:41:38;10.98;;;3.45;;
23390;SDS011;11868;45.606;5.302;2023-04-25T04:44:03;6.95;;;3.90;;
23390;SDS011;11868;45.606;5.302;2023-04-25T04:46:29;7.03;;;3.53;;
23390;SDS011;11868;45.606;5.302;2023-04-25T04:48:56;13.07;;;3.85;;
23390;SDS011;11868;45.606;5.302;2023-04-25T04:51:21;11.15;;;3.95;;
23390;SDS011;11868;45.606;5.302;2023-04-25T04:53:47;12.55;;;4.03;;
23390;SDS011;11868;45.606;5.302;2023-04-25T04:56:12;7.60;;;3.97;;
23390;SDS011;11868;45.606;5.302;2023-04-25T04:58:37;7.63;;;3.95;;
23390;SDS011;11868;45.606;5.302;2023-04-25T05:01:03;8.60;;;3.95;;
23390;SDS011;11868;45.606;5.302;2023-04-25T05:03:28;11.65;;;5.20;;
23390;SDS011;11868;45.606;5.302;2023-04-25T05:05:54;11.27;;;4.05;;
23390;SDS011;11868;45.606;5.302;2023-04-25T05:08:20;8.20;;;4.07;;
23390;SDS011;11868;45.606;5.302;2023-04-25T05:10:45;11.93;;;4.72;;
23390;SDS011;11868;45.606;5.302;2023-04-25T05:13:10;11.25;;;4.43;;
23390;SDS011;11868;45.606;5.302;2023-04-25T05:15:36;10.25;;;4.13;;
23390;SDS011;11868;45.606;5.302;2023-04-25T05:18:01;13.52;;;3.70;;
23390;SDS011;11868;45.606;5.302;2023-04-25T05:20:26;14.77;;;4.40;;
23390;SDS011;11868;45.606;5.302;2023-04-25T05:22:52;7.13;;;3.70;;
23390;SDS011;11868;45.606;5.302;2023-04-25T05:25:18;11.20;;;4.10;;
23390;SDS011;11868;45.606;5.302;2023-04-25T05:27:43;13.27;;;4.40;;
23390;SDS011;11868;45.606;5.302;2023-04-25T05:30:08;8.82;;;4.05;;
23390;SDS011;11868;45.606;5.302;2023-04-25T05:32:34;9.20;;;4.00;;
23390;SDS011;11868;45.606;5.302;2023-04-25T05:35:00;10.18;;;3.88;;
23390;SDS011;11868;45.606;5.302;2023-04-25T05:37:26;7.85;;;3.67;;
23390;SDS011;11868;45.606;5.302;2023-04-25T05:39:51;8.02;;;3.83;;
23390;SDS011;11868;45.606;5.302;2023-04-25T05:42:16;14.07;;;4.20;;
23390;SDS011;11868;45.606;5.302;2023-04-25T05:44:42;8.48;;;3.47;;
23390;SDS011;11868;45.606;5.302;2023-04-25T05:47:07;12.02;;;4.10;;
23390;SDS011;11868;45.606;5.302;2023-04-25T05:49:33;8.48;;;3.95;;
23390;SDS011;11868;45.606;5.302;2023-04-25T05:51:59;11.43;;;3.78;;
23390;SDS011;11868;45.606;5.302;2023-04-25T05:54:24;8.52;;;3.95;;
23390;SDS011;11868;45.606;5.302;2023-04-25T05:56:50;9.93;;;3.97;;
23390;SDS011;11868;45.606;5.302;2023-04-25T05:59:15;13.60;;;3.67;;
23390;SDS011;11868;45.606;5.302;2023-04-25T06:01:41;9.90;;;3.70;;
23390;SDS011;11868;45.606;5.302;2023-04-25T06:04:06;11.27;;;3.97;;
23390;SDS011;11868;45.606;5.302;2023-04-25T06:06:32;12.23;;;4.30;;
23390;SDS011;11868;45.606;5.302;2023-04-25T06:08:57;14.88;;;4.30;;
23390;SDS011;11868;45.606;5.302;2023-04-25T06:11:23;10.88;;;4.25;;
23390;SDS011;11868;45.606;5.302;2023-04-25T06:13:48;6.38;;;3.40;;
23390;SDS011;11868;45.606;5.302;2023-04-25T06:16:13;12.50;;;4.10;;
23390;SDS011;11868;45.606;5.302;2023-04-25T06:18:39;11.27;;;3.83;;
23390;SDS011;11868;45.606;5.302;2023-04-25T06:21:04;14.60;;;4.40;;
23390;SDS011;11868;45.606;5.302;2023-04-25T06:23:30;10.55;;;4.22;;
23390;SDS011;11868;45.606;5.302;2023-04-25T06:25:55;7.45;;;4.40;;
23390;SDS011;11868;45.606;5.302;2023-04-25T06:28:20;10.43;;;4.30;;
23390;SDS011;11868;45.606;5.302;2023-04-25T06:30:47;11.55;;;4.55;;
23390;SDS011;11868;45.606;5.302;2023-04-25T06:33:13;13.27;;;4.38;;
23390;SDS011;11868;45.606;5.302;2023-04-25T06:35:38;9.00;;;4.13;;
23390;SDS011;11868;45.606;5.302;2023-04-25T06:38:03;11.23;;;4.50;;
23390;SDS011;11868;45.606;5.302;2023-04-25T06:40:29;11.88;;;4.15;;
23390;SDS011;11868;45.606;5.302;2023-04-25T06:42:54;14.45;;;4.95;;
23390;SDS011;11868;45.606;5.302;2023-04-25T06:45:19;10.93;;;4.20;;
23390;SDS011;11868;45.606;5.302;2023-04-25T06:47:45;10.95;;;4.63;;
23390;SDS011;11868;45.606;5.302;2023-04-25T06:50:10;14.15;;;4.75;;
23390;SDS011;11868;45.606;5.302;2023-04-25T06:52:36;13.27;;;4.35;;
23390;SDS011;11868;45.606;5.302;2023-04-25T06:55:01;8.88;;;4.18;;
23390;SDS011;11868;45.606;5.302;2023-04-25T06:57:26;8.27;;;4.50;;
23390;SDS011;11868;45.606;5.302;2023-04-25T06:59:52;23.23;;;4.70;;
23390;SDS011;11868;45.606;5.302;2023-04-25T07:02:17;20.17;;;4.80;;
23390;SDS011;11868;45.606;5.302;2023-04-25T07:04:42;11.23;;;4.60;;
23390;SDS011;11868;45.606;5.302;2023-04-25T07:07:07;16.55;;;4.32;;
23390;SDS011;11868;45.606;5.302;2023-04-25T07:09:33;12.60;;;4.43;;
23390;SDS011;11868;45.606;5.302;2023-04-25T07:11:58;14.30;;;4.78;;
23390;SDS011;11868;45.606;5.302;2023-04-25T07:14:24;8.27;;;4.15;;
23390;SDS011;11868;45.606;5.302;2023-04-25T07:16:50;14.02;;;4.40;;
23390;SDS011;11868;45.606;5.302;2023-04-25T07:19:15;10.40;;;4.50;;
23390;SDS011;11868;45.606;5.302;2023-04-25T07:21:40;9.63;;;4.40;;
23390;SDS011;11868;45.606;5.302;2023-04-25T07:24:06;17.38;;;4.72;;
23390;SDS011;11868;45.606;5.302;2023-04-25T07:26:31;13.88;;;4.10;;
23390;SDS011;11868;45.606;5.302;2023-04-25T07:28:57;16.17;;;5.53;;
23390;SDS011;11868;45.606;5.302;2023-04-25T07:31:22;14.15;;;5.68;;
23390;SDS011;11868;45.606;5.302;2023-04-25T07:33:47;12.75;;;4.97;;
23390;SDS011;11868;45.606;5.302;2023-04-25T07:36:13;11.75;;;4.70;;
23390;SDS011;11868;45.606;5.302;2023-04-25T07:38:40;14.63;;;4.65;;
23390;SDS011;11868;45.606;5.302;2023-04-25T07:41:05;10.82;;;4.15;;
23390;SDS011;11868;45.606;5.302;2023-04-25T07:43:30;15.32;;;4.82;;
23390;SDS011;11868;45.606;5.302;2023-04-25T07:45:56;14.02;;;4.60;;
23390;SDS011;11868;45.606;5.302;2023-04-25T07:48:22;11.73;;;4.90;;
23390;SDS011;11868;45.606;5.302;2023-04-25T07:50:47;10.48;;;4.47;;
23390;SDS011;11868;45.606;5.302;2023-04-25T07:53:12;11.80;;;4.70;;
23390;SDS011;11868;45.606;5.302;2023-04-25T07:55:38;11.00;;;4.80;;
23390;SDS011;11868;45.606;5.302;2023-04-25T07:58:05;14.15;;;5.10;;
23390;SDS011;11868;45.606;5.302;2023-04-25T08:00:34;10.20;;;4.95;;
23390;SDS011;11868;45.606;5.302;2023-04-25T08:02:59;11.15;;;4.75;;
23390;SDS011;11868;45.606;5.302;2023-04-25T08:05:25;10.60;;;3.88;;
23390;SDS011;11868;45.606;5.302;2023-04-25T08:07:50;12.90;;;3.90;;
23390;SDS011;11868;45.606;5.302;2023-04-25T08:10:16;13.93;;;4.40;;
23390;SDS011;11868;45.606;5.302;2023-04-25T08:12:42;11.13;;;4.60;;
23390;SDS011;11868;45.606;5.302;2023-04-25T08:15:08;12.63;;;4.57;;
23390;SDS011;11868;45.606;5.302;2023-04-25T08:17:34;12.07;;;4.88;;
23390;SDS011;11868;45.606;5.302;2023-04-25T08:19:59;9.93;;;4.10;;
23390;SDS011;11868;45.606;5.302;2023-04-25T08:22:25;13.55;;;4.40;;
23390;SDS011;11868;45.606;5.302;2023-04-25T08:24:50;10.18;;;3.80;;
23390;SDS011;11868;45.606;5.302;2023-04-25T08:27:15;9.82;;;4.63;;
23390;SDS011;11868;45.606;5.302;2023-04-25T08:29:41;11.50;;;4.20;;
23390;SDS011;11868;45.606;5.302;2023-04-25T08:32:07;7.07;;;3.53;;
23390;SDS011;11868;45.606;5.302;2023-04-25T08:34:32;6.78;;;3.63;;
23390;SDS011;11868;45.606;5.302;2023-04-25T08:37:02;9.90;;;3.70;;
23390;SDS011;11868;45.606;5.302;2023-04-25T08:39:29;9.13;;;3.75;;
23390;SDS011;11868;45.606;5.302;2023-04-25T08:41:55;6.85;;;3.65;;
23390;SDS011;11868;45.606;5.302;2023-04-25T08:44:20;8.27;;;3.17;;
23390;SDS011;11868;45.606;5.302;2023-04-25T08:46:47;4.78;;;3.08;;
23390;SDS011;11868;45.606;5.302;2023-04-25T08:49:14;6.70;;;3.20;;
23390;SDS011;11868;45.606;5.302;2023-04-25T08:51:45;6.57;;;3.53;;
23390;SDS011;11868;45.606;5.302;2023-04-25T08:54:12;5.88;;;2.85;;
23390;SDS011;11868;45.606;5.302;2023-04-25T08:56:38;5.93;;;3.17;;
23390;SDS011;11868;45.606;5.302;2023-04-25T08:59:05;8.23;;;3.17;;
23390;SDS011;11868;45.606;5.302;2023-04-25T09:01:33;9.68;;;3.08;;
23390;SDS011;11868;45.606;5.302;2023-04-25T09:03:59;10.18;;;2.90;;
23390;SDS011;11868;45.606;5.302;2023-04-25T09:06:25;8.35;;;2.80;;
23390;SDS011;11868;45.606;5.302;2023-04-25T09:08:51;9.65;;;3.20;;
23390;SDS011;11868;45.606;5.302;2023-04-25T09:11:16;5.80;;;2.58;;
23390;SDS011;11868;45.606;5.302;2023-04-25T09:13:42;13.30;;;2.50;;
23390;SDS011;11868;45.606;5.302;2023-04-25T09:16:07;10.27;;;2.78;;
23390;SDS011;11868;45.606;5.302;2023-04-25T09:18:33;4.35;;;1.92;;
23390;SDS011;11868;45.606;5.302;2023-04-25T09:23:38;5.28;;;1.95;;
23390;SDS011;11868;45.606;5.302;2023-04-25T09:26:13;6.40;;;2.27;;
23390;SDS011;11868;45.606;5.302;2023-04-25T09:28:40;8.27;;;2.50;;
23390;SDS011;11868;45.606;5.302;2023-04-25T09:31:05;6.05;;;1.80;;
23390;SDS011;11868;45.606;5.302;2023-04-25T09:33:32;9.82;;;2.72;;
23390;SDS011;11868;45.606;5.302;2023-04-25T09:36:05;4.72;;;1.98;;
23390;SDS011;11868;45.606;5.302;2023-04-25T09:38:41;6.53;;;2.10;;
23390;SDS011;11868;45.606;5.302;2023-04-25T09:41:08;5.65;;;2.30;;
23390;SDS011;11868;45.606;5.302;2023-04-25T09:43:34;8.82;;;2.50;;
23390;SDS011;11868;45.606;5.302;2023-04-25T09:46:00;9.73;;;2.03;;
23390;SDS011;11868;45.606;5.302;2023-04-25T09:48:26;5.50;;;1.85;;
23390;SDS011;11868;45.606;5.302;2023-04-25T09:53:38;4.20;;;2.63;;
23390;SDS011;11868;45.606;5.302;2023-04-25T09:56:06;6.82;;;2.40;;
23390;SDS011;11868;45.606;5.302;2023-04-25T09:58:32;12.48;;;3.00;;
23390;SDS011;11868;45.606;5.302;2023-04-25T10:01:03;6.65;;;2.50;;
23390;SDS011;11868;45.606;5.302;2023-04-25T10:03:33;5.93;;;2.20;;
23390;SDS011;11868;45.606;5.302;2023-04-25T10:06:00;8.82;;;3.10;;
23390;SDS011;11868;45.606;5.302;2023-04-25T10:08:32;8.07;;;3.22;;
23390;SDS011;11868;45.606;5.302;2023-04-25T10:11:03;8.30;;;3.20;;
23390;SDS011;11868;45.606;5.302;2023-04-25T10:13:29;7.15;;;3.22;;
23390;SDS011;11868;45.606;5.302;2023-04-25T10:15:59;7.53;;;3.67;;
23390;SDS011;11868;45.606;5.302;2023-04-25T10:18:26;8.32;;;2.95;;
23390;SDS011;11868;45.606;5.302;2023-04-25T10:20:53;5.72;;;2.38;;
23390;SDS011;11868;45.606;5.302;2023-04-25T10:23:20;4.95;;;2.13;;
23390;SDS011;11868;45.606;5.302;2023-04-25T10:25:45;7.88;;;2.03;;
23390;SDS011;11868;45.606;5.302;2023-04-25T10:28:11;7.75;;;2.15;;
23390;SDS011;11868;45.606;5.302;2023-04-25T10:30:36;7.43;;;2.00;;
23390;SDS011;11868;45.606;5.302;2023-04-25T10:33:01;6.10;;;2.30;;
23390;SDS011;11868;45.606;5.302;2023-04-25T10:35:41;5.55;;;2.10;;
23390;SDS011;11868;45.606;5.302;2023-04-25T10:38:10;5.35;;;2.15;;
23390;SDS011;11868;45.606;5.302;2023-04-25T10:43:32;11.50;;;2.67;;
23390;SDS011;11868;45.606;5.302;2023-04-25T10:45:56;7.18;;;1.95;;
23390;SDS011;11868;45.606;5.302;2023-04-25T10:48:28;7.57;;;2.22;;
23390;SDS011;11868;45.606;5.302;2023-04-25T10:51:10;9.93;;;1.95;;
23390;SDS011;11868;45.606;5.302;2023-04-25T10:53:36;6.30;;;2.50;;
23390;SDS011;11868;45.606;5.302;2023-04-25T10:56:11;5.88;;;2.47;;
23390;SDS011;11868;45.606;5.302;2023-04-25T10:58:46;6.15;;;2.20;;
23390;SDS011;11868;45.606;5.302;2023-04-25T11:01:13;5.68;;;2.58;;
23390;SDS011;11868;45.606;5.302;2023-04-25T11:03:43;8.75;;;2.30;;
23390;SDS011;11868;45.606;5.302;2023-04-25T11:06:15;6.72;;;2.25;;
23390;SDS011;11868;45.606;5.302;2023-04-25T11:08:48;4.43;;;1.73;;
23390;SDS011;11868;45.606;5.302;2023-04-25T11:11:15;6.57;;;1.85;;
23390;SDS011;11868;45.606;5.302;2023-04-25T11:13:44;6.80;;;1.80;;
23390;SDS011;11868;45.606;5.302;2023-04-25T11:16:13;5.07;;;1.67;;
23390;SDS011;11868;45.606;5.302;2023-04-25T11:18:40;8.02;;;2.05;;
23390;SDS011;11868;45.606;5.302;2023-04-25T11:21:06;10.13;;;2.10;;
23390;SDS011;11868;45.606;5.302;2023-04-25T11:23:31;2.72;;;1.73;;
23390;SDS011;11868;45.606;5.302;2023-04-25T11:25:57;6.40;;;1.92;;
23390;SDS011;11868;45.606;5.302;2023-04-25T11:28:22;7.07;;;1.90;;
23390;SDS011;11868;45.606;5.302;2023-04-25T11:30:51;5.45;;;1.70;;
23390;SDS011;11868;45.606;5.302;2023-04-25T11:33:17;8.93;;;2.22;;
23390;SDS011;11868;45.606;5.302;2023-04-25T11:35:42;9.23;;;1.92;;
23390;SDS011;11868;45.606;5.302;2023-04-25T11:38:08;5.53;;;1.80;;
23390;SDS011;11868;45.606;5.302;2023-04-25T11:40:35;5.03;;;1.40;;
23390;SDS011;11868;45.606;5.302;2023-04-25T11:43:00;4.75;;;1.38;;
23390;SDS011;11868;45.606;5.302;2023-04-25T11:45:26;4.30;;;1.60;;
23390;SDS011;11868;45.606;5.302;2023-04-25T11:47:52;5.65;;;1.73;;
23390;SDS011;11868;45.606;5.302;2023-04-25T11:50:18;5.65;;;1.70;;
23390;SDS011;11868;45.606;5.302;2023-04-25T11:52:47;3.40;;;1.27;;
23390;SDS011;11868;45.606;5.302;2023-04-25T11:57:40;3.83;;;1.33;;
23390;SDS011;11868;45.606;5.302;2023-04-25T12:00:13;5.82;;;2.25;;
23390;SDS011;11868;45.606;5.302;2023-04-25T12:02:41;4.30;;;1.70;;
23390;SDS011;11868;45.606;5.302;2023-04-25T12:05:07;6.47;;;2.30;;
23390;SDS011;11868;45.606;5.302;2023-04-25T12:07:34;3.85;;;1.60;;
23390;SDS011;11868;45.606;5.302;2023-04-25T12:10:03;4.93;;;1.80;;
23390;SDS011;11868;45.606;5.302;2023-04-25T12:12:36;8.02;;;2.42;;
23390;SDS011;11868;45.606;5.302;2023-04-25T12:15:08;5.22;;;1.98;;
23390;SDS011;11868;45.606;5.302;2023-04-25T12:17:52;2.55;;;1.45;;
23390;SDS011;11868;45.606;5.302;2023-04-25T12:20:20;3.10;;;1.63;;
23390;SDS011;11868;45.606;5.302;2023-04-25T12:22:49;6.43;;;1.77;;
23390;SDS011;11868;45.606;5.302;2023-04-25T12:28:10;3.03;;;1.80;;
23390;SDS011;11868;45.606;5.302;2023-04-25T12:31:24;6.45;;;1.77;;
23390;SDS011;11868;45.606;5.302;2023-04-25T12:33:32;6.25;;;1.95;;
23390;SDS011;11868;45.606;5.302;2023-04-25T12:36:01;6.00;;;1.85;;
23390;SDS011;11868;45.606;5.302;2023-04-25T12:38:36;5.18;;;1.80;;
23390;SDS011;11868;45.606;5.302;2023-04-25T12:41:03;5.15;;;2.10;;
23390;SDS011;11868;45.606;5.302;2023-04-25T12:43:28;4.68;;;1.55;;
23390;SDS011;11868;45.606;5.302;2023-04-25T12:45:54;6.60;;;1.85;;
23390;SDS011;11868;45.606;5.302;2023-04-25T12:48:20;5.93;;;1.70;;
23390;SDS011;11868;45.606;5.302;2023-04-25T12:50:46;5.80;;;1.52;;
23390;SDS011;11868;45.606;5.302;2023-04-25T12:55:44;7.10;;;1.80;;
23390;SDS011;11868;45.606;5.302;2023-04-25T12:58:11;4.95;;;1.70;;
23390;SDS011;11868;45.606;5.302;2023-04-25T13:00:37;8.25;;;1.80;;
23390;SDS011;11868;45.606;5.302;2023-04-25T13:03:03;3.55;;;1.67;;
23390;SDS011;11868;45.606;5.302;2023-04-25T13:05:29;6.97;;;2.20;;
23390;SDS011;11868;45.606;5.302;2023-04-25T13:07:55;5.18;;;1.65;;
23390;SDS011;11868;45.606;5.302;2023-04-25T13:10:20;4.20;;;2.03;;
23390;SDS011;11868;45.606;5.302;2023-04-25T13:12:46;10.35;;;2.05;;
23390;SDS011;11868;45.606;5.302;2023-04-25T13:15:11;5.50;;;2.00;;
23390;SDS011;11868;45.606;5.302;2023-04-25T13:17:37;4.40;;;1.77;;
23390;SDS011;11868;45.606;5.302;2023-04-25T13:20:03;3.33;;;1.70;;
23390;SDS011;11868;45.606;5.302;2023-04-25T13:22:33;5.07;;;1.98;;
23390;SDS011;11868;45.606;5.302;2023-04-25T13:24:59;7.93;;;2.15;;
23390;SDS011;11868;45.606;5.302;2023-04-25T13:27:24;7.05;;;1.98;;
23390;SDS011;11868;45.606;5.302;2023-04-25T13:29:49;4.68;;;1.58;;
23390;SDS011;11868;45.606;5.302;2023-04-25T13:32:15;4.22;;;1.60;;
23390;SDS011;11868;45.606;5.302;2023-04-25T13:34:40;3.33;;;1.55;;
23390;SDS011;11868;45.606;5.302;2023-04-25T13:37:05;5.25;;;1.50;;
23390;SDS011;11868;45.606;5.302;2023-04-25T13:39:31;5.32;;;1.50;;
23390;SDS011;11868;45.606;5.302;2023-04-25T13:41:56;7.05;;;1.77;;
23390;SDS011;11868;45.606;5.302;2023-04-25T13:44:22;4.15;;;1.80;;
23390;SDS011;11868;45.606;5.302;2023-04-25T13:46:47;4.38;;;1.80;;
23390;SDS011;11868;45.606;5.302;2023-04-25T13:49:12;4.88;;;1.75;;
23390;SDS011;11868;45.606;5.302;2023-04-25T13:51:38;4.72;;;1.73;;
23390;SDS011;11868;45.606;5.302;2023-04-25T13:54:03;3.80;;;1.67;;
23390;SDS011;11868;45.606;5.302;2023-04-25T13:56:29;4.07;;;1.73;;
23390;SDS011;11868;45.606;5.302;2023-04-25T13:58:54;6.57;;;1.73;;
23390;SDS011;11868;45.606;5.302;2023-04-25T14:01:20;5.18;;;1.90;;
23390;SDS011;11868;45.606;5.302;2023-04-25T14:03:46;5.15;;;1.60;;
23390;SDS011;11868;45.606;5.302;2023-04-25T14:06:11;6.47;;;1.65;;
23390;SDS011;11868;45.606;5.302;2023-04-25T14:08:37;3.88;;;1.80;;
23390;SDS011;11868;45.606;5.302;2023-04-25T14:11:03;3.85;;;1.77;;
23390;SDS011;11868;45.606;5.302;2023-04-25T14:16:04;5.95;;;2.00;;
23390;SDS011;11868;45.606;5.302;2023-04-25T14:18:30;3.42;;;1.40;;
23390;SDS011;11868;45.606;5.302;2023-04-25T14:20:55;10.77;;;1.70;;
23390;SDS011;11868;45.606;5.302;2023-04-25T14:23:21;6.60;;;1.73;;
23390;SDS011;11868;45.606;5.302;2023-04-25T14:25:46;2.92;;;1.33;;
23390;SDS011;11868;45.606;5.302;2023-04-25T14:28:12;7.18;;;1.60;;
23390;SDS011;11868;45.606;5.302;2023-04-25T14:30:37;3.28;;;1.50;;
23390;SDS011;11868;45.606;5.302;2023-04-25T14:33:03;6.30;;;1.63;;
23390;SDS011;11868;45.606;5.302;2023-04-25T14:35:28;3.80;;;1.52;;
23390;SDS011;11868;45.606;5.302;2023-04-25T14:37:54;5.15;;;1.70;;
23390;SDS011;11868;45.606;5.302;2023-04-25T14:40:19;3.75;;;1.67;;
23390;SDS011;11868;45.606;5.302;2023-04-25T14:42:47;2.90;;;1.20;;
23390;SDS011;11868;45.606;5.302;2023-04-25T14:45:13;4.03;;;1.50;;
23390;SDS011;11868;45.606;5.302;2023-04-25T14:47:38;4.32;;;1.50;;
23390;SDS011;11868;45.606;5.302;2023-04-25T14:50:04;3.17;;;1.40;;
23390;SDS011;11868;45.606;5.302;2023-04-25T14:52:31;3.28;;;1.13;;
23390;SDS011;11868;45.606;5.302;2023-04-25T14:54:56;3.97;;;1.52;;
23390;SDS011;11868;45.606;5.302;2023-04-25T14:57:21;8.07;;;1.80;;